sensor_id;sensor_type;location;lat;lon;timestamp;temperature;humidity
4429;DHT22;2227;47.810;8.810;2024-03-08T04:49:51;4.30;99.90
4429;DHT22;2227;47.810;8.810;2024-03-08T04:52:18;4.30;99.90
4429;DHT22;2227;47.810;8.810;2024-03-08T04:54:44;4.30;99.90
4429;DHT22;2227;47.810;8.810;2024-03-08T04:57:11;4.30;99.90
4429;DHT22;2227;47.810;8.810;2024-03-08T04:59:38;4.30;99.90
4429;DHT22;2227;47.810;8.810;2024-03-08T05:02:05;4.20;99.90
4429;DHT22;2227;47.810;8.810;2024-03-08T05:04:33;4.20;99.90
4429;DHT22;2227;47.810;8.810;2024-03-08T05:07:00;4.10;99.90
4429;DHT22;2227;47.810;8.810;2024-03-08T05:09:30;4.10;99.90
4429;DHT22;2227;47.810;8.810;2024-03-08T05:11:58;4.10;99.90
4429;DHT22;2227;47.810;8.810;2024-03-08T05:14:26;4.20;99.90
4429;DHT22;2227;47.810;8.810;2024-03-08T05:16:53;4.10;99.90
4429;DHT22;2227;47.810;8.810;2024-03-08T05:19:20;4.10;99.90
4429;DHT22;2227;47.810;8.810;2024-03-08T05:21:48;4.10;99.90
4429;DHT22;2227;47.810;8.810;2024-03-08T05:24:16;4.20;99.90
4429;DHT22;2227;47.810;8.810;2024-03-08T05:26:44;4.20;99.90
4429;DHT22;2227;47.810;8.810;2024-03-08T05:29:11;4.10;99.90
4429;DHT22;2227;47.810;8.810;2024-03-08T05:34:12;4.20;99.90
4429;DHT22;2227;47.810;8.810;2024-03-08T05:36:41;4.20;99.90
4429;DHT22;2227;47.810;8.810;2024-03-08T05:39:13;4.10;99.90
4429;DHT22;2227;47.810;8.810;2024-03-08T05:41:41;4.00;99.90
4429;DHT22;2227;47.810;8.810;2024-03-08T05:44:09;4.00;99.90
4429;DHT22;2227;47.810;8.810;2024-03-08T05:46:37;4.00;99.90
4429;DHT22;2227;47.810;8.810;2024-03-08T05:49:04;4.00;99.90
4429;DHT22;2227;47.810;8.810;2024-03-08T05:51:38;4.10;99.90
4429;DHT22;2227;47.810;8.810;2024-03-08T05:54:08;4.00;99.90
4429;DHT22;2227;47.810;8.810;2024-03-08T05:56:37;4.10;99.90
4429;DHT22;2227;47.810;8.810;2024-03-08T05:59:04;4.10;99.90
4429;DHT22;2227;47.810;8.810;2024-03-08T06:01:31;4.00;99.90
4429;DHT22;2227;47.810;8.810;2024-03-08T06:03:57;4.10;99.90
4429;DHT22;2227;47.810;8.810;2024-03-08T06:06:25;4.00;99.90
4429;DHT22;2227;47.810;8.810;2024-03-08T06:08:52;4.00;99.90
4429;DHT22;2227;47.810;8.810;2024-03-08T06:11:20;4.20;99.90
4429;DHT22;2227;47.810;8.810;2024-03-08T06:13:47;4.20;99.90
4429;DHT22;2227;47.810;8.810;2024-03-08T06:16:15;4.10;99.90
4429;DHT22;2227;47.810;8.810;2024-03-08T06:18:42;4.10;99.90
4429;DHT22;2227;47.810;8.810;2024-03-08T06:21:09;4.20;99.90
4429;DHT22;2227;47.810;8.810;2024-03-08T06:23:38;4.20;99.90
4429;DHT22;2227;47.810;8.810;2024-03-08T06:26:05;4.20;99.90
4429;DHT22;2227;47.810;8.810;2024-03-08T06:28:32;4.30;99.90
4429;DHT22;2227;47.810;8.810;2024-03-08T06:30:59;4.30;99.90
4429;DHT22;2227;47.810;8.810;2024-03-08T06:33:27;4.20;99.90
4429;DHT22;2227;47.810;8.810;2024-03-08T06:35:57;4.30;99.90
4429;DHT22;2227;47.810;8.810;2024-03-08T06:38:24;4.30;99.90
4429;DHT22;2227;47.810;8.810;2024-03-08T06:40:52;4.20;99.90
4429;DHT22;2227;47.810;8.810;2024-03-08T06:43:19;4.30;99.90
4429;DHT22;2227;47.810;8.810;2024-03-08T06:45:46;4.20;99.90
4429;DHT22;2227;47.810;8.810;2024-03-08T06:48:18;4.20;99.90
4429;DHT22;2227;47.810;8.810;2024-03-08T06:50:46;4.10;99.90
4429;DHT22;2227;47.810;8.810;2024-03-08T06:53:14;4.10;99.90
4429;DHT22;2227;47.810;8.810;2024-03-08T06:55:42;4.20;99.90
4429;DHT22;2227;47.810;8.810;2024-03-08T06:58:09;4.30;99.90
4429;DHT22;2227;47.810;8.810;2024-03-08T07:00:38;4.40;99.90
4429;DHT22;2227;47.810;8.810;2024-03-08T07:03:08;4.40;99.90
4429;DHT22;2227;47.810;8.810;2024-03-08T07:05:38;4.40;99.90
4429;DHT22;2227;47.810;8.810;2024-03-08T07:08:07;4.50;99.90
4429;DHT22;2227;47.810;8.810;2024-03-08T07:10:33;4.50;99.90
4429;DHT22;2227;47.810;8.810;2024-03-08T07:13:01;4.40;99.90
4429;DHT22;2227;47.810;8.810;2024-03-08T07:15:31;4.50;99.90
4429;DHT22;2227;47.810;8.810;2024-03-08T07:17:57;4.50;99.90
4429;DHT22;2227;47.810;8.810;2024-03-08T07:20:26;4.40;99.90
4429;DHT22;2227;47.810;8.810;2024-03-08T07:22:53;4.50;99.90
4429;DHT22;2227;47.810;8.810;2024-03-08T07:25:20;4.50;99.90
4429;DHT22;2227;47.810;8.810;2024-03-08T07:27:49;4.50;99.90
4429;DHT22;2227;47.810;8.810;2024-03-08T07:30:15;4.40;99.90
4429;DHT22;2227;47.810;8.810;2024-03-08T07:33:01;4.40;99.90
4429;DHT22;2227;47.810;8.810;2024-03-08T07:35:29;4.70;99.90
4429;DHT22;2227;47.810;8.810;2024-03-08T07:37:57;4.80;99.90
4429;DHT22;2227;47.810;8.810;2024-03-08T07:40:26;4.80;99.90
4429;DHT22;2227;47.810;8.810;2024-03-08T07:42:53;4.80;99.90
4429;DHT22;2227;47.810;8.810;2024-03-08T07:45:20;4.60;99.90
4429;DHT22;2227;47.810;8.810;2024-03-08T07:47:48;4.80;99.90
4429;DHT22;2227;47.810;8.810;2024-03-08T07:50:16;4.80;99.90
4429;DHT22;2227;47.810;8.810;2024-03-08T07:52:43;4.90;99.90
4429;DHT22;2227;47.810;8.810;2024-03-08T07:55:10;4.90;99.90
4429;DHT22;2227;47.810;8.810;2024-03-08T07:57:39;5.00;99.90
4429;DHT22;2227;47.810;8.810;2024-03-08T08:00:07;4.90;99.90
4429;DHT22;2227;47.810;8.810;2024-03-08T08:02:35;4.70;99.90
4429;DHT22;2227;47.810;8.810;2024-03-08T08:05:06;4.80;99.90
4429;DHT22;2227;47.810;8.810;2024-03-08T08:07:33;4.90;99.90
4429;DHT22;2227;47.810;8.810;2024-03-08T08:10:00;5.00;99.90
4429;DHT22;2227;47.810;8.810;2024-03-08T08:12:26;5.00;99.90
4429;DHT22;2227;47.810;8.810;2024-03-08T08:14:55;4.80;99.90
4429;DHT22;2227;47.810;8.810;2024-03-08T08:17:23;4.80;99.90
4429;DHT22;2227;47.810;8.810;2024-03-08T08:19:49;4.80;99.90
4429;DHT22;2227;47.810;8.810;2024-03-08T08:22:16;4.70;99.90
4429;DHT22;2227;47.810;8.810;2024-03-08T08:24:44;4.90;99.90
4429;DHT22;2227;47.810;8.810;2024-03-08T08:27:11;5.00;99.90
4429;DHT22;2227;47.810;8.810;2024-03-08T08:29:38;5.00;99.90
4429;DHT22;2227;47.810;8.810;2024-03-08T08:32:06;4.90;99.90
4429;DHT22;2227;47.810;8.810;2024-03-08T08:34:33;5.10;99.90
4429;DHT22;2227;47.810;8.810;2024-03-08T08:37:00;5.30;99.90
4429;DHT22;2227;47.810;8.810;2024-03-08T08:39:27;5.40;99.90
4429;DHT22;2227;47.810;8.810;2024-03-08T08:41:54;5.10;99.90
4429;DHT22;2227;47.810;8.810;2024-03-08T08:44:22;5.20;99.90
4429;DHT22;2227;47.810;8.810;2024-03-08T08:46:49;5.40;99.90
4429;DHT22;2227;47.810;8.810;2024-03-08T08:49:18;5.40;99.90
4429;DHT22;2227;47.810;8.810;2024-03-08T08:51:50;5.40;99.90
4429;DHT22;2227;47.810;8.810;2024-03-08T08:54:19;5.50;99.90
4429;DHT22;2227;47.810;8.810;2024-03-08T08:56:47;5.40;99.90
4429;DHT22;2227;47.810;8.810;2024-03-08T08:59:14;5.40;99.90
4429;DHT22;2227;47.810;8.810;2024-03-08T09:01:40;5.50;99.90
4429;DHT22;2227;47.810;8.810;2024-03-08T09:04:07;5.60;99.90
4429;DHT22;2227;47.810;8.810;2024-03-08T09:06:35;5.70;99.90
4429;DHT22;2227;47.810;8.810;2024-03-08T09:09:02;5.80;99.90
4429;DHT22;2227;47.810;8.810;2024-03-08T09:11:32;5.70;99.90
4429;DHT22;2227;47.810;8.810;2024-03-08T09:13:59;5.60;99.90
4429;DHT22;2227;47.810;8.810;2024-03-08T09:16:26;5.60;99.90
4429;DHT22;2227;47.810;8.810;2024-03-08T09:18:53;5.70;99.90
4429;DHT22;2227;47.810;8.810;2024-03-08T09:21:19;5.80;99.90
4429;DHT22;2227;47.810;8.810;2024-03-08T09:23:49;5.80;99.90
4429;DHT22;2227;47.810;8.810;2024-03-08T09:26:16;5.80;99.90
4429;DHT22;2227;47.810;8.810;2024-03-08T09:28:54;5.80;99.90
4429;DHT22;2227;47.810;8.810;2024-03-08T09:31:23;5.90;99.90
4429;DHT22;2227;47.810;8.810;2024-03-08T09:33:50;5.70;99.90
4429;DHT22;2227;47.810;8.810;2024-03-08T09:36:17;5.60;99.90
4429;DHT22;2227;47.810;8.810;2024-03-08T09:38:44;5.50;99.90
4429;DHT22;2227;47.810;8.810;2024-03-08T09:41:11;5.60;99.90
4429;DHT22;2227;47.810;8.810;2024-03-08T09:43:39;5.60;99.90
4429;DHT22;2227;47.810;8.810;2024-03-08T09:46:06;5.50;99.90
4429;DHT22;2227;47.810;8.810;2024-03-08T09:48:34;5.30;99.90
4429;DHT22;2227;47.810;8.810;2024-03-08T09:51:02;5.20;99.90
4429;DHT22;2227;47.810;8.810;2024-03-08T09:53:29;5.00;99.90
4429;DHT22;2227;47.810;8.810;2024-03-08T09:55:57;5.00;99.90
4429;DHT22;2227;47.810;8.810;2024-03-08T09:58:24;4.90;99.90
4429;DHT22;2227;47.810;8.810;2024-03-08T10:00:54;5.00;99.90
4429;DHT22;2227;47.810;8.810;2024-03-08T10:03:24;5.20;99.90
4429;DHT22;2227;47.810;8.810;2024-03-08T10:05:52;5.30;99.90
4429;DHT22;2227;47.810;8.810;2024-03-08T10:08:23;5.40;99.90
4429;DHT22;2227;47.810;8.810;2024-03-08T10:10:51;5.60;99.90
4429;DHT22;2227;47.810;8.810;2024-03-08T10:13:18;5.60;99.90
4429;DHT22;2227;47.810;8.810;2024-03-08T10:15:46;5.60;99.90
4429;DHT22;2227;47.810;8.810;2024-03-08T10:18:13;5.70;99.90
4429;DHT22;2227;47.810;8.810;2024-03-08T10:20:40;5.70;99.90
4429;DHT22;2227;47.810;8.810;2024-03-08T10:23:06;5.70;99.90
4429;DHT22;2227;47.810;8.810;2024-03-08T10:25:37;5.70;99.90
4429;DHT22;2227;47.810;8.810;2024-03-08T10:28:05;5.80;99.90
4429;DHT22;2227;47.810;8.810;2024-03-08T10:30:32;5.90;99.90
4429;DHT22;2227;47.810;8.810;2024-03-08T10:32:59;5.80;99.90
4429;DHT22;2227;47.810;8.810;2024-03-08T10:35:26;5.90;99.90
4429;DHT22;2227;47.810;8.810;2024-03-08T10:37:56;5.90;99.90
4429;DHT22;2227;47.810;8.810;2024-03-08T10:40:27;5.90;99.90
4429;DHT22;2227;47.810;8.810;2024-03-08T10:42:56;6.10;99.90
4429;DHT22;2227;47.810;8.810;2024-03-08T10:45:39;6.00;99.90
4429;DHT22;2227;47.810;8.810;2024-03-08T10:48:17;6.10;99.90
4429;DHT22;2227;47.810;8.810;2024-03-08T10:50:49;6.10;99.90
4429;DHT22;2227;47.810;8.810;2024-03-08T10:53:20;6.20;99.90
4429;DHT22;2227;47.810;8.810;2024-03-08T10:55:49;6.20;99.90
4429;DHT22;2227;47.810;8.810;2024-03-08T10:58:21;6.20;99.90
4429;DHT22;2227;47.810;8.810;2024-03-08T11:00:49;6.20;99.90
4429;DHT22;2227;47.810;8.810;2024-03-08T11:06:21;6.00;99.90
4429;DHT22;2227;47.810;8.810;2024-03-08T11:08:50;6.10;99.90
4429;DHT22;2227;47.810;8.810;2024-03-08T11:11:27;6.20;99.90
4429;DHT22;2227;47.810;8.810;2024-03-08T11:13:59;6.30;99.90
4429;DHT22;2227;47.810;8.810;2024-03-08T11:18:54;6.00;99.90
4429;DHT22;2227;47.810;8.810;2024-03-08T11:21:23;6.20;99.90
4429;DHT22;2227;47.810;8.810;2024-03-08T11:24:06;6.20;99.90
4429;DHT22;2227;47.810;8.810;2024-03-08T11:26:33;6.40;99.90
4429;DHT22;2227;47.810;8.810;2024-03-08T11:32:09;6.70;99.90
4429;DHT22;2227;47.810;8.810;2024-03-08T11:34:39;6.70;99.90
4429;DHT22;2227;47.810;8.810;2024-03-08T11:37:20;6.70;99.90
4429;DHT22;2227;47.810;8.810;2024-03-08T11:39:52;6.80;99.90
4429;DHT22;2227;47.810;8.810;2024-03-08T11:42:19;6.80;99.90
4429;DHT22;2227;47.810;8.810;2024-03-08T11:44:47;6.90;99.90
4429;DHT22;2227;47.810;8.810;2024-03-08T11:47:15;6.90;99.90
4429;DHT22;2227;47.810;8.810;2024-03-08T11:49:43;6.90;99.90
4429;DHT22;2227;47.810;8.810;2024-03-08T11:52:12;7.10;99.90
4429;DHT22;2227;47.810;8.810;2024-03-08T11:54:48;7.10;99.90
4429;DHT22;2227;47.810;8.810;2024-03-08T11:57:20;7.00;99.90
4429;DHT22;2227;47.810;8.810;2024-03-08T11:59:52;6.70;99.90
4429;DHT22;2227;47.810;8.810;2024-03-08T12:02:23;6.70;99.90
4429;DHT22;2227;47.810;8.810;2024-03-08T12:05:00;6.90;99.90
4429;DHT22;2227;47.810;8.810;2024-03-08T12:07:30;7.00;99.90
4429;DHT22;2227;47.810;8.810;2024-03-08T12:12:45;7.00;99.90
4429;DHT22;2227;47.810;8.810;2024-03-08T12:15:17;7.00;99.90
4429;DHT22;2227;47.810;8.810;2024-03-08T12:17:46;7.10;99.90
4429;DHT22;2227;47.810;8.810;2024-03-08T12:20:20;7.10;99.90
4429;DHT22;2227;47.810;8.810;2024-03-08T12:22:50;7.20;99.90
4429;DHT22;2227;47.810;8.810;2024-03-08T12:25:35;7.20;99.90
4429;DHT22;2227;47.810;8.810;2024-03-08T12:28:12;7.00;99.90
4429;DHT22;2227;47.810;8.810;2024-03-08T12:30:51;7.10;99.90
4429;DHT22;2227;47.810;8.810;2024-03-08T12:33:20;7.20;99.90
4429;DHT22;2227;47.810;8.810;2024-03-08T12:35:53;7.20;99.90
4429;DHT22;2227;47.810;8.810;2024-03-08T12:38:22;7.20;99.90
4429;DHT22;2227;47.810;8.810;2024-03-08T12:40:59;7.10;99.90
4429;DHT22;2227;47.810;8.810;2024-03-08T12:43:26;7.20;99.90
4429;DHT22;2227;47.810;8.810;2024-03-08T12:45:57;7.30;99.90
4429;DHT22;2227;47.810;8.810;2024-03-08T12:48:24;7.30;99.90
4429;DHT22;2227;47.810;8.810;2024-03-08T12:50:51;7.40;99.90
4429;DHT22;2227;47.810;8.810;2024-03-08T12:53:18;7.20;99.90
4429;DHT22;2227;47.810;8.810;2024-03-08T12:55:45;7.30;99.90
4429;DHT22;2227;47.810;8.810;2024-03-08T12:58:12;7.30;99.90
4429;DHT22;2227;47.810;8.810;2024-03-08T13:00:39;7.40;99.90
4429;DHT22;2227;47.810;8.810;2024-03-08T13:03:10;7.40;99.90
4429;DHT22;2227;47.810;8.810;2024-03-08T13:05:38;7.50;99.90
4429;DHT22;2227;47.810;8.810;2024-03-08T13:08:07;7.50;99.90
4429;DHT22;2227;47.810;8.810;2024-03-08T13:10:40;7.40;99.90
4429;DHT22;2227;47.810;8.810;2024-03-08T13:13:10;7.40;99.90
4429;DHT22;2227;47.810;8.810;2024-03-08T13:15:40;7.60;99.90
4429;DHT22;2227;47.810;8.810;2024-03-08T13:18:07;7.50;99.90
4429;DHT22;2227;47.810;8.810;2024-03-08T13:20:35;7.70;99.90
4429;DHT22;2227;47.810;8.810;2024-03-08T13:23:13;7.90;99.90
4429;DHT22;2227;47.810;8.810;2024-03-08T13:25:40;7.70;99.90
4429;DHT22;2227;47.810;8.810;2024-03-08T13:28:08;7.50;99.90
4429;DHT22;2227;47.810;8.810;2024-03-08T13:30:35;7.40;99.90
4429;DHT22;2227;47.810;8.810;2024-03-08T13:33:02;7.70;99.90
4429;DHT22;2227;47.810;8.810;2024-03-08T13:35:32;7.80;99.90
4429;DHT22;2227;47.810;8.810;2024-03-08T13:37:59;7.70;99.90
4429;DHT22;2227;47.810;8.810;2024-03-08T13:40:29;7.80;99.90
4429;DHT22;2227;47.810;8.810;2024-03-08T13:42:57;7.80;99.90
4429;DHT22;2227;47.810;8.810;2024-03-08T13:45:25;8.10;99.90
4429;DHT22;2227;47.810;8.810;2024-03-08T13:47:53;8.50;99.90
4429;DHT22;2227;47.810;8.810;2024-03-08T13:50:21;8.90;99.90
4429;DHT22;2227;47.810;8.810;2024-03-08T13:52:50;9.00;99.90
4429;DHT22;2227;47.810;8.810;2024-03-08T13:55:20;9.40;99.90
4429;DHT22;2227;47.810;8.810;2024-03-08T13:57:49;9.60;99.90
4429;DHT22;2227;47.810;8.810;2024-03-08T14:00:18;10.10;99.90
4429;DHT22;2227;47.810;8.810;2024-03-08T14:02:48;10.70;99.90
4429;DHT22;2227;47.810;8.810;2024-03-08T14:05:15;11.20;99.90
4429;DHT22;2227;47.810;8.810;2024-03-08T14:07:43;11.60;99.90
4429;DHT22;2227;47.810;8.810;2024-03-08T14:10:13;11.70;99.90
4429;DHT22;2227;47.810;8.810;2024-03-08T14:12:40;11.80;99.90
4429;DHT22;2227;47.810;8.810;2024-03-08T14:15:07;11.90;99.90
4429;DHT22;2227;47.810;8.810;2024-03-08T14:17:34;12.50;99.90
4429;DHT22;2227;47.810;8.810;2024-03-08T14:20:00;12.70;99.90
4429;DHT22;2227;47.810;8.810;2024-03-08T14:22:28;12.30;99.90
4429;DHT22;2227;47.810;8.810;2024-03-08T14:24:54;12.00;99.90
4429;DHT22;2227;47.810;8.810;2024-03-08T14:27:22;12.20;99.90
4429;DHT22;2227;47.810;8.810;2024-03-08T14:29:49;12.50;99.90
4429;DHT22;2227;47.810;8.810;2024-03-08T14:32:16;12.90;99.90
4429;DHT22;2227;47.810;8.810;2024-03-08T14:34:46;13.10;99.90
4429;DHT22;2227;47.810;8.810;2024-03-08T14:37:14;13.40;99.90
4429;DHT22;2227;47.810;8.810;2024-03-08T14:39:41;13.50;99.90
4429;DHT22;2227;47.810;8.810;2024-03-08T14:42:08;13.50;99.90
4429;DHT22;2227;47.810;8.810;2024-03-08T14:44:39;13.70;99.90
4429;DHT22;2227;47.810;8.810;2024-03-08T14:47:06;13.80;99.90
4429;DHT22;2227;47.810;8.810;2024-03-08T14:49:33;14.00;99.90
4429;DHT22;2227;47.810;8.810;2024-03-08T14:52:03;14.20;99.90
4429;DHT22;2227;47.810;8.810;2024-03-08T14:54:41;14.30;99.90
4429;DHT22;2227;47.810;8.810;2024-03-08T14:57:07;14.30;99.90
4429;DHT22;2227;47.810;8.810;2024-03-08T14:59:34;14.00;99.90
4429;DHT22;2227;47.810;8.810;2024-03-08T15:02:01;13.50;99.90
4429;DHT22;2227;47.810;8.810;2024-03-08T15:04:28;13.20;99.90
4429;DHT22;2227;47.810;8.810;2024-03-08T15:06:56;13.10;99.90
4429;DHT22;2227;47.810;8.810;2024-03-08T15:09:22;12.90;99.90
4429;DHT22;2227;47.810;8.810;2024-03-08T15:11:49;13.00;99.90
4429;DHT22;2227;47.810;8.810;2024-03-08T15:14:16;13.10;99.90
4429;DHT22;2227;47.810;8.810;2024-03-08T15:16:46;12.70;99.90
4429;DHT22;2227;47.810;8.810;2024-03-08T15:19:14;12.70;99.90
4429;DHT22;2227;47.810;8.810;2024-03-08T15:21:42;12.40;99.90
4429;DHT22;2227;47.810;8.810;2024-03-08T15:24:12;12.10;99.90
4429;DHT22;2227;47.810;8.810;2024-03-08T15:26:42;12.10;99.90
4429;DHT22;2227;47.810;8.810;2024-03-08T15:29:10;12.60;99.90
4429;DHT22;2227;47.810;8.810;2024-03-08T15:31:39;12.80;99.90
4429;DHT22;2227;47.810;8.810;2024-03-08T15:34:07;12.80;99.90
4429;DHT22;2227;47.810;8.810;2024-03-08T15:36:35;12.30;99.90
4429;DHT22;2227;47.810;8.810;2024-03-08T15:39:02;11.60;99.90
4429;DHT22;2227;47.810;8.810;2024-03-08T15:41:29;11.20;99.90
4429;DHT22;2227;47.810;8.810;2024-03-08T15:43:56;11.00;99.90
4429;DHT22;2227;47.810;8.810;2024-03-08T15:46:23;10.90;99.90
4429;DHT22;2227;47.810;8.810;2024-03-08T15:48:51;11.00;99.90
4429;DHT22;2227;47.810;8.810;2024-03-08T15:51:18;11.00;99.90
4429;DHT22;2227;47.810;8.810;2024-03-08T15:53:46;10.80;99.90
4429;DHT22;2227;47.810;8.810;2024-03-08T15:56:23;10.50;99.90
4429;DHT22;2227;47.810;8.810;2024-03-08T15:58:50;10.50;99.90
4429;DHT22;2227;47.810;8.810;2024-03-08T16:01:19;10.30;99.90
4429;DHT22;2227;47.810;8.810;2024-03-08T16:03:47;10.10;99.90
4429;DHT22;2227;47.810;8.810;2024-03-08T16:06:17;10.20;99.90
4429;DHT22;2227;47.810;8.810;2024-03-08T16:08:52;10.40;99.90
4429;DHT22;2227;47.810;8.810;2024-03-08T16:11:19;10.40;99.90
4429;DHT22;2227;47.810;8.810;2024-03-08T16:13:48;10.40;99.90
4429;DHT22;2227;47.810;8.810;2024-03-08T16:16:16;10.50;99.90
4429;DHT22;2227;47.810;8.810;2024-03-08T16:18:43;10.60;99.90
4429;DHT22;2227;47.810;8.810;2024-03-08T16:21:10;10.80;99.90
4429;DHT22;2227;47.810;8.810;2024-03-08T16:23:38;10.50;99.90
4429;DHT22;2227;47.810;8.810;2024-03-08T16:26:05;10.20;99.90
4429;DHT22;2227;47.810;8.810;2024-03-08T16:28:33;10.20;99.90
4429;DHT22;2227;47.810;8.810;2024-03-08T16:31:06;10.50;99.90
4429;DHT22;2227;47.810;8.810;2024-03-08T16:33:34;10.60;99.90
4429;DHT22;2227;47.810;8.810;2024-03-08T16:36:02;10.40;99.90
4429;DHT22;2227;47.810;8.810;2024-03-08T16:38:29;9.90;99.90
4429;DHT22;2227;47.810;8.810;2024-03-08T16:41:00;9.60;99.90
4429;DHT22;2227;47.810;8.810;2024-03-08T16:43:27;9.30;99.90
4429;DHT22;2227;47.810;8.810;2024-03-08T16:45:54;9.30;99.90
4429;DHT22;2227;47.810;8.810;2024-03-08T16:48:22;9.00;99.90
4429;DHT22;2227;47.810;8.810;2024-03-08T16:50:51;8.80;99.90
4429;DHT22;2227;47.810;8.810;2024-03-08T16:53:18;8.80;99.90
4429;DHT22;2227;47.810;8.810;2024-03-08T16:55:45;8.80;99.90
4429;DHT22;2227;47.810;8.810;2024-03-08T16:58:13;8.70;99.90
4429;DHT22;2227;47.810;8.810;2024-03-08T17:00:43;8.80;99.90
4429;DHT22;2227;47.810;8.810;2024-03-08T17:03:10;8.50;99.90
4429;DHT22;2227;47.810;8.810;2024-03-08T17:05:40;8.60;99.90
4429;DHT22;2227;47.810;8.810;2024-03-08T17:08:12;8.50;99.90
4429;DHT22;2227;47.810;8.810;2024-03-08T17:10:39;8.40;99.90
4429;DHT22;2227;47.810;8.810;2024-03-08T17:13:07;8.20;99.90
4429;DHT22;2227;47.810;8.810;2024-03-08T17:15:35;8.10;99.90
4429;DHT22;2227;47.810;8.810;2024-03-08T17:18:03;7.90;99.90
4429;DHT22;2227;47.810;8.810;2024-03-08T17:20:36;7.90;99.90
4429;DHT22;2227;47.810;8.810;2024-03-08T17:23:05;7.90;99.90
4429;DHT22;2227;47.810;8.810;2024-03-08T17:25:35;7.80;99.90
4429;DHT22;2227;47.810;8.810;2024-03-08T17:28:04;7.80;99.90
4429;DHT22;2227;47.810;8.810;2024-03-08T17:30:33;7.60;99.90
4429;DHT22;2227;47.810;8.810;2024-03-08T17:33:05;7.50;99.90
4429;DHT22;2227;47.810;8.810;2024-03-08T17:35:37;7.50;99.90
4429;DHT22;2227;47.810;8.810;2024-03-08T17:38:06;7.30;99.90
4429;DHT22;2227;47.810;8.810;2024-03-08T17:40:39;7.20;99.90
4429;DHT22;2227;47.810;8.810;2024-03-08T17:43:07;7.00;99.90
4429;DHT22;2227;47.810;8.810;2024-03-08T17:45:37;6.90;99.90
4429;DHT22;2227;47.810;8.810;2024-03-08T17:48:06;6.80;99.90
4429;DHT22;2227;47.810;8.810;2024-03-08T17:50:40;7.00;99.90
4429;DHT22;2227;47.810;8.810;2024-03-08T17:53:07;6.80;99.90
4429;DHT22;2227;47.810;8.810;2024-03-08T17:55:34;6.70;99.90
4429;DHT22;2227;47.810;8.810;2024-03-08T17:58:07;6.70;99.90
4429;DHT22;2227;47.810;8.810;2024-03-08T18:00:34;6.60;99.90
4429;DHT22;2227;47.810;8.810;2024-03-08T18:03:05;6.60;99.90
4429;DHT22;2227;47.810;8.810;2024-03-08T18:05:35;6.60;99.90
4429;DHT22;2227;47.810;8.810;2024-03-08T18:08:04;6.60;99.90
4429;DHT22;2227;47.810;8.810;2024-03-08T18:10:33;6.50;99.90
4429;DHT22;2227;47.810;8.810;2024-03-08T18:13:02;6.50;99.90
4429;DHT22;2227;47.810;8.810;2024-03-08T18:15:33;6.30;99.90
4429;DHT22;2227;47.810;8.810;2024-03-08T18:18:01;6.20;99.90
4429;DHT22;2227;47.810;8.810;2024-03-08T18:20:31;6.20;99.90
4429;DHT22;2227;47.810;8.810;2024-03-08T18:23:00;6.20;99.90
4429;DHT22;2227;47.810;8.810;2024-03-08T18:25:29;6.20;99.90
4429;DHT22;2227;47.810;8.810;2024-03-08T18:28:01;6.20;99.90
4429;DHT22;2227;47.810;8.810;2024-03-08T18:30:28;6.20;99.90
4429;DHT22;2227;47.810;8.810;2024-03-08T18:32:55;6.20;99.90
4429;DHT22;2227;47.810;8.810;2024-03-08T18:35:21;6.10;99.90
4429;DHT22;2227;47.810;8.810;2024-03-08T18:37:49;6.10;99.90
4429;DHT22;2227;47.810;8.810;2024-03-08T18:40:19;6.10;99.90
4429;DHT22;2227;47.810;8.810;2024-03-08T18:42:53;6.10;99.90
4429;DHT22;2227;47.810;8.810;2024-03-08T18:45:21;6.20;99.90
4429;DHT22;2227;47.810;8.810;2024-03-08T18:47:51;6.10;99.90
4429;DHT22;2227;47.810;8.810;2024-03-08T18:50:21;6.20;99.90
4429;DHT22;2227;47.810;8.810;2024-03-08T18:52:50;6.20;99.90
4429;DHT22;2227;47.810;8.810;2024-03-08T18:55:18;6.30;99.90
4429;DHT22;2227;47.810;8.810;2024-03-08T18:57:51;6.30;99.90
4429;DHT22;2227;47.810;8.810;2024-03-08T19:00:22;6.40;99.90
4429;DHT22;2227;47.810;8.810;2024-03-08T19:03:07;6.40;99.90
4429;DHT22;2227;47.810;8.810;2024-03-08T19:05:37;6.50;99.90
4429;DHT22;2227;47.810;8.810;2024-03-08T19:08:09;6.60;99.90
4429;DHT22;2227;47.810;8.810;2024-03-08T19:10:40;6.60;99.90
4429;DHT22;2227;47.810;8.810;2024-03-08T19:13:08;6.60;99.90
4429;DHT22;2227;47.810;8.810;2024-03-08T19:15:40;6.60;99.90
4429;DHT22;2227;47.810;8.810;2024-03-08T19:18:09;6.60;99.90
4429;DHT22;2227;47.810;8.810;2024-03-08T19:20:40;6.70;99.90
4429;DHT22;2227;47.810;8.810;2024-03-08T19:23:07;6.80;99.90
4429;DHT22;2227;47.810;8.810;2024-03-08T19:25:37;6.80;99.90
4429;DHT22;2227;47.810;8.810;2024-03-08T19:28:12;6.90;99.90
4429;DHT22;2227;47.810;8.810;2024-03-08T19:30:40;6.80;99.90
4429;DHT22;2227;47.810;8.810;2024-03-08T19:33:07;6.90;99.90
4429;DHT22;2227;47.810;8.810;2024-03-08T19:35:34;7.00;99.90
4429;DHT22;2227;47.810;8.810;2024-03-08T19:38:02;6.90;99.90
4429;DHT22;2227;47.810;8.810;2024-03-08T19:40:30;7.10;99.90
4429;DHT22;2227;47.810;8.810;2024-03-08T19:43:03;7.10;99.90
4429;DHT22;2227;47.810;8.810;2024-03-08T19:45:32;7.10;99.90
4429;DHT22;2227;47.810;8.810;2024-03-08T19:48:01;7.10;99.90
4429;DHT22;2227;47.810;8.810;2024-03-08T19:50:31;7.20;99.90
4429;DHT22;2227;47.810;8.810;2024-03-08T19:52:59;7.30;99.90
4429;DHT22;2227;47.810;8.810;2024-03-08T19:55:31;7.40;99.90
4429;DHT22;2227;47.810;8.810;2024-03-08T19:58:04;7.30;99.90
4429;DHT22;2227;47.810;8.810;2024-03-08T20:00:31;7.40;99.90
4429;DHT22;2227;47.810;8.810;2024-03-08T20:03:02;7.30;99.90
4429;DHT22;2227;47.810;8.810;2024-03-08T20:05:31;7.30;99.90
4429;DHT22;2227;47.810;8.810;2024-03-08T20:07:59;7.30;99.90
4429;DHT22;2227;47.810;8.810;2024-03-08T20:10:40;7.40;99.90
4429;DHT22;2227;47.810;8.810;2024-03-08T20:13:08;7.40;99.90
4429;DHT22;2227;47.810;8.810;2024-03-08T20:15:36;7.40;99.90
4429;DHT22;2227;47.810;8.810;2024-03-08T20:18:19;7.50;99.90
4429;DHT22;2227;47.810;8.810;2024-03-08T20:20:49;7.40;99.90
4429;DHT22;2227;47.810;8.810;2024-03-08T20:23:21;7.40;99.90
4429;DHT22;2227;47.810;8.810;2024-03-08T20:25:50;7.40;99.90
4429;DHT22;2227;47.810;8.810;2024-03-08T20:28:17;7.40;99.90
4429;DHT22;2227;47.810;8.810;2024-03-08T20:30:44;7.40;99.90
4429;DHT22;2227;47.810;8.810;2024-03-08T20:33:13;7.50;99.90
4429;DHT22;2227;47.810;8.810;2024-03-08T20:35:40;7.40;99.90
4429;DHT22;2227;47.810;8.810;2024-03-08T20:38:07;7.40;99.90
4429;DHT22;2227;47.810;8.810;2024-03-08T20:40:36;7.30;99.90
4429;DHT22;2227;47.810;8.810;2024-03-08T20:43:09;7.40;99.90
4429;DHT22;2227;47.810;8.810;2024-03-08T20:45:43;7.40;99.90
4429;DHT22;2227;47.810;8.810;2024-03-08T20:48:10;7.40;99.90
4429;DHT22;2227;47.810;8.810;2024-03-08T20:50:40;7.40;99.90
4429;DHT22;2227;47.810;8.810;2024-03-08T20:53:09;7.40;99.90
4429;DHT22;2227;47.810;8.810;2024-03-08T20:55:38;7.40;99.90
4429;DHT22;2227;47.810;8.810;2024-03-08T20:58:10;7.40;99.90
4429;DHT22;2227;47.810;8.810;2024-03-08T21:00:37;7.40;99.90
4429;DHT22;2227;47.810;8.810;2024-03-08T21:03:12;7.40;99.90
4429;DHT22;2227;47.810;8.810;2024-03-08T21:05:46;7.30;99.90
4429;DHT22;2227;47.810;8.810;2024-03-08T21:08:25;7.30;99.90
4429;DHT22;2227;47.810;8.810;2024-03-08T21:10:55;7.20;99.90
4429;DHT22;2227;47.810;8.810;2024-03-08T21:13:24;7.10;99.90
4429;DHT22;2227;47.810;8.810;2024-03-08T21:15:52;7.10;99.90
4429;DHT22;2227;47.810;8.810;2024-03-08T21:18:19;7.10;99.90
4429;DHT22;2227;47.810;8.810;2024-03-08T21:20:48;7.10;99.90
4429;DHT22;2227;47.810;8.810;2024-03-08T21:23:15;7.10;99.90
4429;DHT22;2227;47.810;8.810;2024-03-08T21:25:42;7.10;99.90
4429;DHT22;2227;47.810;8.810;2024-03-08T21:28:10;7.10;99.90